createdAt,value
2018-11-20T00:01:41.127Z,72.71
2018-11-20T00:04:26.007Z,72.49
2018-11-20T00:07:18.237Z,72.68
2018-11-20T00:10:09.152Z,72.66
2018-11-20T00:12:46.137Z,71.92
2018-11-20T00:15:33.026Z,72.04
2018-11-20T00:18:19.553Z,72.65
2018-11-20T00:21:07.601Z,73.08
2018-11-20T00:23:54.159Z,72.69
2018-11-20T00:27:00.580Z,72.70
2018-11-20T00:29:47.326Z,72.34
2018-11-20T00:32:34.228Z,72.63
2018-11-20T00:35:21.759Z,72.57
2018-11-20T00:38:09.905Z,72.40
2018-11-20T00:40:50.595Z,72.37
2018-11-20T00:43:37.324Z,72.45
2018-11-20T00:46:24.252Z,72.43
2018-11-20T00:49:08.996Z,72.19
2018-11-20T00:51:55.472Z,72.28
2018-11-20T00:54:38.360Z,72.80
2018-11-20T00:57:14.805Z,72.51
2018-11-20T00:59:56.750Z,72.70
2018-11-20T01:02:43.296Z,72.78
2018-11-20T01:05:29.886Z,72.64
2018-11-20T01:08:36.050Z,72.81
2018-11-20T01:11:24.105Z,72.67
2018-11-20T01:14:10.882Z,72.69
2018-11-20T01:17:01.725Z,73.23
2018-11-20T01:19:46.521Z,72.93
2018-11-20T01:22:33.465Z,72.84
2018-11-20T01:25:16.502Z,72.92
2018-11-20T01:27:55.230Z,73.24
2018-11-20T01:30:42.042Z,73.25
2018-11-20T01:33:28.726Z,73.31
2018-11-20T01:36:15.326Z,73.09
2018-11-20T01:38:56.681Z,73.21
2018-11-20T01:41:47.828Z,73.38
2018-11-20T01:44:34.708Z,73.07
2018-11-20T01:47:21.446Z,73.61
2018-11-20T01:50:08.346Z,73.61
2018-11-20T01:52:54.981Z,73.95
2018-11-20T01:55:41.688Z,73.48
2018-11-20T01:58:28.540Z,73.77
2018-11-20T02:01:16.613Z,73.17
2018-11-20T02:04:03.480Z,73.61
2018-11-20T02:06:45.131Z,73.95
2018-11-20T02:09:25.618Z,74.17
2018-11-20T02:12:22.682Z,73.74
2018-11-20T02:15:13.556Z,73.74
2018-11-20T02:18:05.720Z,74.51
2018-11-20T02:20:54.554Z,74.13
2018-11-20T02:23:40.989Z,74.68
2018-11-20T02:26:29.070Z,74.09
2018-11-20T02:29:10.292Z,74.02
2018-11-20T02:31:57.508Z,73.84
2018-11-20T02:34:45.580Z,73.45
2018-11-20T02:37:41.295Z,74.22
2018-11-20T02:40:22.926Z,74.18
2018-11-20T02:43:09.414Z,74.43
2018-11-20T02:46:06.395Z,74.30
2018-11-20T02:48:54.473Z,74.23
2018-11-20T02:51:45.360Z,74.26
2018-11-20T02:54:36.404Z,74.46
2018-11-20T02:57:24.483Z,74.11
2018-11-20T03:00:06.672Z,73.82
2018-11-20T03:02:53.398Z,74.11
2018-11-20T03:05:36.719Z,74.48
2018-11-20T03:08:24.761Z,74.01
2018-11-20T03:11:11.550Z,73.63
2018-11-20T03:14:06.905Z,74.12
2018-11-20T03:17:02.853Z,74.24
2018-11-20T03:19:39.858Z,74.22
2018-11-20T03:22:26.774Z,74.08
2018-11-20T03:25:09.324Z,74.11
2018-11-20T03:27:55.198Z,74.49
2018-11-20T03:31:19.411Z,74.02
2018-11-20T03:34:21.355Z,73.80
2018-11-20T03:37:08.896Z,74.05
2018-11-20T03:40:02.527Z,74.52
2018-11-20T03:42:48.950Z,74.34
2018-11-20T03:45:39.970Z,74.41
2018-11-20T03:48:26.548Z,74.44
2018-11-20T03:51:29.931Z,74.52
2018-11-20T03:54:20.906Z,74.55
2018-11-20T03:57:27.227Z,74.47
2018-11-20T04:00:14.067Z,74.88
2018-11-20T04:03:17.074Z,74.84
2018-11-20T04:05:56.262Z,74.29
2018-11-20T04:08:58.754Z,74.55
2018-11-20T04:11:45.553Z,74.54
2018-11-20T04:14:23.696Z,74.57
2018-11-20T04:17:10.244Z,74.53
2018-11-20T04:19:54.678Z,74.61
2018-11-20T04:22:38.447Z,74.35
2018-11-20T04:25:32.414Z,74.74
2018-11-20T04:28:26.215Z,74.51
2018-11-20T04:31:58.466Z,74.61
2018-11-20T04:34:49.489Z,74.72
2018-11-20T04:37:38.516Z,74.79
2018-11-20T04:40:38.911Z,75.71
2018-11-20T04:43:25.816Z,75.71
2018-11-20T04:46:16.714Z,76.50
2018-11-20T04:49:04.857Z,76.09
2018-11-20T04:51:46.107Z,75.87
2018-11-20T04:54:32.735Z,76.32
2018-11-20T04:57:17.721Z,75.94
2018-11-20T05:00:08.863Z,75.84
2018-11-20T05:02:55.549Z,75.95
2018-11-20T05:05:42.177Z,76.17
2018-11-20T05:08:25.170Z,76.06
2018-11-20T05:11:13.238Z,76.43
2018-11-20T05:14:11.110Z,76.32
2018-11-20T05:16:58.181Z,76.09
2018-11-20T05:19:41.767Z,75.20
2018-11-20T05:22:30.741Z,74.66
2018-11-20T05:25:27.898Z,74.72
2018-11-20T05:28:17.698Z,75.17
2018-11-20T05:30:55.653Z,75.57
2018-11-20T05:33:43.593Z,75.26
2018-11-20T05:36:25.370Z,75.30
2018-11-20T05:39:12.114Z,75.59
2018-11-20T05:42:00.167Z,75.08
2018-11-20T05:44:46.972Z,75.00
2018-11-20T05:47:33.172Z,75.73
2018-11-20T05:50:30.154Z,76.41
2018-11-20T05:53:15.020Z,76.48
2018-11-20T05:56:01.836Z,76.49
2018-11-20T05:58:40.495Z,76.53
2018-11-20T06:01:27.307Z,76.55
2018-11-20T06:04:27.650Z,76.38
2018-11-20T06:07:14.459Z,76.91
2018-11-20T06:10:17.477Z,77.36
2018-11-20T06:12:58.086Z,76.85
2018-11-20T06:15:53.587Z,76.50
2018-11-20T06:18:41.656Z,76.47
2018-11-20T06:21:23.419Z,76.30
2018-11-20T06:24:00.443Z,76.41
2018-11-20T06:26:44.513Z,76.45
2018-11-20T06:29:44.948Z,76.21
2018-11-20T06:32:38.615Z,76.42
2018-11-20T06:35:22.479Z,76.26
2018-11-20T06:38:09.226Z,76.21
2018-11-20T06:40:55.834Z,75.86
2018-11-20T06:43:43.232Z,76.34
2018-11-20T06:46:34.082Z,76.26
2018-11-20T06:49:20.673Z,76.35
2018-11-20T06:52:02.201Z,76.61
2018-11-20T06:54:59.154Z,76.65
2018-11-20T06:57:49.826Z,76.62
2018-11-20T07:00:36.907Z,76.62
2018-11-20T07:03:39.897Z,77.02
2018-11-20T07:06:24.904Z,76.91
2018-11-20T07:09:11.804Z,77.09
2018-11-20T07:11:54.572Z,76.94
2018-11-20T07:14:44.332Z,77.28
2018-11-20T07:17:29.556Z,77.34
2018-11-20T07:20:24.729Z,77.66
2018-11-20T07:23:30.796Z,77.02
2018-11-20T07:26:21.548Z,77.59
2018-11-20T07:29:22.022Z,77.40
2018-11-20T07:32:08.815Z,77.34
2018-11-20T07:35:02.759Z,77.48
2018-11-20T07:37:49.644Z,77.79
2018-11-20T07:40:38.698Z,77.46
2018-11-20T07:43:32.441Z,77.51
2018-11-20T07:46:28.763Z,77.48
2018-11-20T07:49:32.457Z,78.23
2018-11-20T07:52:26.114Z,78.17
2018-11-20T07:55:12.742Z,77.79
2018-11-20T07:57:59.269Z,77.78
2018-11-20T08:00:56.733Z,77.58
2018-11-20T08:03:44.826Z,77.66
2018-11-20T08:06:32.877Z,77.58
2018-11-20T08:09:11.014Z,77.74
2018-11-20T08:12:01.915Z,77.63
2018-11-20T08:14:40.940Z,77.51
2018-11-20T08:17:32.283Z,77.41
2018-11-20T08:20:29.020Z,77.59
2018-11-20T08:23:16.780Z,77.11
2018-11-20T08:26:04.229Z,76.98
2018-11-20T08:28:43.399Z,76.84
2018-11-20T08:31:38.065Z,76.91
2018-11-20T08:34:24.931Z,76.25
2018-11-20T08:37:24.831Z,76.63
2018-11-20T08:40:18.005Z,76.85
2018-11-20T08:43:04.983Z,76.90
2018-11-20T08:45:51.810Z,76.74
2018-11-20T08:48:40.528Z,77.21
2018-11-20T08:51:31.479Z,76.83
2018-11-20T08:54:25.259Z,76.52
2018-11-20T08:57:03.872Z,76.72
2018-11-20T08:59:50.681Z,76.37
2018-11-20T09:02:30.296Z,76.45
2018-11-20T09:05:17.861Z,76.02
2018-11-20T09:08:15.215Z,75.78
2018-11-20T09:10:58.823Z,75.80
2018-11-20T09:13:52.454Z,75.67
2018-11-20T09:16:31.322Z,75.37
2018-11-20T09:19:19.168Z,75.45
2018-11-20T09:22:05.525Z,75.11
2018-11-20T09:24:53.596Z,74.73
2018-11-20T09:27:42.048Z,74.31
2018-11-20T09:30:42.010Z,74.62
2018-11-20T09:33:24.757Z,74.29
2018-11-20T09:36:21.742Z,73.72
2018-11-20T09:39:08.472Z,73.91
2018-11-20T09:41:49.138Z,73.69
2018-11-20T09:44:54.485Z,73.84
2018-11-20T09:47:43.768Z,73.75
2018-11-20T09:50:32.223Z,73.97
2018-11-20T09:53:23.283Z,73.92
2018-11-20T09:56:17.092Z,73.94
2018-11-20T09:58:56.736Z,73.51
2018-11-20T10:01:47.356Z,73.23
2018-11-20T10:04:35.366Z,73.65
2018-11-20T10:07:22.209Z,72.32
2018-11-20T10:10:16.385Z,73.08
2018-11-20T10:12:55.253Z,72.90
2018-11-20T10:15:55.345Z,72.34
2018-11-20T10:18:55.285Z,72.77
2018-11-20T10:21:43.482Z,71.86
2018-11-20T10:24:30.622Z,72.07
2018-11-20T10:27:14.452Z,71.81
2018-11-20T10:30:17.313Z,72.44
2018-11-20T10:33:04.331Z,72.22
2018-11-20T10:35:58.280Z,71.72
2018-11-20T10:38:58.593Z,71.82
2018-11-20T10:41:52.177Z,71.87
2018-11-20T10:44:38.616Z,71.54
2018-11-20T10:47:27.901Z,71.64
2018-11-20T10:50:31.112Z,71.85
2018-11-20T10:53:20.487Z,71.65
2018-11-20T10:56:20.732Z,71.58
2018-11-20T10:59:07.817Z,71.21
2018-11-20T11:01:54.586Z,70.99
2018-11-20T11:04:41.258Z,71.31
2018-11-20T11:07:47.989Z,71.18
2018-11-20T11:10:36.782Z,70.97
2018-11-20T11:13:16.222Z,70.51
2018-11-20T11:16:07.873Z,70.25
2018-11-20T11:18:54.590Z,70.40
2018-11-20T11:21:41.253Z,70.34
2018-11-20T11:24:25.039Z,70.34
2018-11-20T11:27:04.406Z,70.32
2018-11-20T11:30:05.040Z,69.87
2018-11-20T11:32:53.401Z,70.81
2018-11-20T11:35:40.066Z,70.69
2018-11-20T11:38:27.297Z,70.11
2018-11-20T11:41:14.175Z,70.42
2018-11-20T11:44:17.610Z,69.92
2018-11-20T11:47:11.593Z,70.40
2018-11-20T11:50:11.888Z,70.56
2018-11-20T11:52:58.628Z,71.40
2018-11-20T11:55:46.000Z,70.31
2018-11-20T11:58:37.035Z,70.70
2018-11-20T12:04:18.483Z,70.59
2018-11-20T12:07:20.716Z,70.24
2018-11-20T12:10:18.634Z,70.61
2018-11-20T12:12:59.039Z,70.37
2018-11-20T12:15:52.881Z,70.37
2018-11-20T12:18:40.942Z,70.52
2018-11-20T12:21:29.000Z,70.36
2018-11-20T12:24:35.335Z,70.39
2018-11-20T12:27:23.264Z,70.06
2018-11-20T12:30:08.408Z,70.24
2018-11-20T12:33:09.187Z,70.38
2018-11-20T12:35:56.593Z,70.57
2018-11-20T12:38:33.200Z,70.67
2018-11-20T12:41:19.807Z,71.49
2018-11-20T12:44:08.603Z,70.55
2018-11-20T12:46:59.937Z,71.01
2018-11-20T12:49:39.869Z,71.11
2018-11-20T12:52:20.167Z,71.39
2018-11-20T12:55:03.074Z,70.87
2018-11-20T12:57:49.721Z,71.17
2018-11-20T13:00:39.371Z,71.48
2018-11-20T13:03:28.688Z,71.63
2018-11-20T13:06:14.379Z,71.37
2018-11-20T13:09:01.268Z,71.52
2018-11-20T13:11:48.084Z,71.51
2018-11-20T13:14:45.271Z,71.57
2018-11-20T13:17:30.167Z,71.72
2018-11-20T13:20:24.293Z,71.71
2018-11-20T13:23:29.401Z,71.97
2018-11-20T13:26:16.089Z,72.25
2018-11-20T13:29:02.670Z,72.93
2018-11-20T13:31:50.757Z,73.04
2018-11-20T13:34:54.058Z,72.74
2018-11-20T13:37:37.482Z,72.70
2018-11-20T13:40:17.243Z,72.86
2018-11-20T13:43:06.241Z,73.00
2018-11-20T13:45:53.007Z,73.70
2018-11-20T13:48:47.365Z,73.40
2018-11-20T13:51:33.636Z,73.40
2018-11-20T13:54:15.861Z,73.54
2018-11-20T13:57:08.618Z,73.55
2018-11-20T14:00:03.024Z,73.27
2018-11-20T14:02:49.627Z,73.25
2018-11-20T14:05:31.454Z,73.80
2018-11-20T14:08:12.270Z,73.65
2018-11-20T14:11:01.331Z,73.79
2018-11-20T14:13:36.965Z,73.80
2018-11-20T14:16:23.899Z,73.53
2018-11-20T14:19:18.430Z,73.82
2018-11-20T14:22:24.761Z,74.00
2018-11-20T14:25:04.558Z,74.18
2018-11-20T14:27:51.531Z,73.88
2018-11-20T14:30:48.562Z,73.81
2018-11-20T14:33:32.000Z,73.79
2018-11-20T14:36:32.166Z,74.33
2018-11-20T14:39:35.689Z,74.34
2018-11-20T14:42:38.623Z,74.32
2018-11-20T14:45:35.558Z,74.38
2018-11-20T14:48:29.537Z,74.90
2018-11-20T14:51:16.269Z,74.30
2018-11-20T14:53:56.952Z,74.58
2018-11-20T14:56:36.250Z,75.04
2018-11-20T14:59:17.058Z,75.50
2018-11-20T15:02:06.616Z,76.19
2018-11-20T15:04:53.437Z,76.52
2018-11-20T15:07:29.202Z,76.58
2018-11-20T15:10:15.699Z,77.23
2018-11-20T15:13:04.015Z,77.25
2018-11-20T15:15:53.574Z,77.21
2018-11-20T15:18:45.443Z,77.05
2018-11-20T15:21:23.938Z,77.69
2018-11-20T15:24:03.814Z,77.73
2018-11-20T15:26:43.099Z,78.07
2018-11-20T15:29:36.938Z,78.63
2018-11-20T15:32:24.996Z,78.75
2018-11-20T15:35:21.301Z,78.90
2018-11-20T15:38:20.749Z,79.32
2018-11-20T15:41:07.578Z,79.86
2018-11-20T15:43:48.361Z,80.21
2018-11-20T15:46:32.952Z,80.51
2018-11-20T15:49:19.661Z,80.59
2018-11-20T15:52:01.156Z,80.85
2018-11-20T15:54:49.225Z,81.52
2018-11-20T15:57:40.337Z,81.96
2018-11-20T16:00:37.857Z,82.36
2018-11-20T16:03:28.561Z,82.76
2018-11-20T16:06:11.067Z,82.68
2018-11-20T16:08:57.808Z,82.63
2018-11-20T16:11:44.404Z,82.32
2018-11-20T16:14:44.337Z,82.22
2018-11-20T16:17:34.906Z,82.24
2018-11-20T16:20:22.989Z,83.03
2018-11-20T16:23:22.931Z,83.39
2018-11-20T16:26:02.736Z,84.06
2018-11-20T16:29:02.815Z,84.69
2018-11-20T16:31:45.756Z,85.00
2018-11-20T16:34:32.573Z,85.55
2018-11-20T16:37:19.221Z,85.48
2018-11-20T16:40:01.343Z,85.51
2018-11-20T16:42:48.189Z,85.62
2018-11-20T16:45:39.122Z,85.37
2018-11-20T16:48:20.702Z,85.10
2018-11-20T16:51:03.908Z,85.06
2018-11-20T16:53:50.880Z,84.97
2018-11-20T16:56:48.330Z,85.00
2018-11-20T16:59:45.433Z,85.31
2018-11-20T17:02:30.265Z,85.39
2018-11-20T17:05:20.948Z,85.57
2018-11-20T17:08:07.732Z,86.04
2018-11-20T17:10:54.539Z,85.98
2018-11-20T17:13:52.392Z,85.97
2018-11-20T17:16:39.276Z,85.69
2018-11-20T17:19:15.725Z,86.44
2018-11-20T17:22:04.389Z,86.10
2018-11-20T17:24:45.817Z,86.40
2018-11-20T17:27:32.911Z,87.37
2018-11-20T17:30:26.046Z,87.92
2018-11-20T17:33:07.393Z,87.92
2018-11-20T17:35:54.717Z,87.64
2018-11-20T17:38:41.608Z,87.40
2018-11-20T17:41:29.714Z,87.49
2018-11-20T17:44:16.306Z,87.45
2018-11-20T17:47:04.982Z,87.67
2018-11-20T17:49:55.271Z,87.95
2018-11-20T17:52:49.012Z,87.28
2018-11-20T17:55:45.925Z,87.69
2018-11-20T17:58:40.077Z,88.83
2018-11-20T18:01:22.643Z,88.71
2018-11-20T18:04:14.414Z,88.62
2018-11-20T18:06:55.288Z,88.45
2018-11-20T18:09:41.976Z,88.26
2018-11-20T18:12:31.805Z,87.78
2018-11-20T18:15:18.338Z,87.27
2018-11-20T18:18:06.568Z,87.03
2018-11-20T18:21:06.601Z,87.06
2018-11-20T18:23:53.424Z,87.24
2018-11-20T18:26:40.036Z,87.42
2018-11-20T18:29:27.392Z,87.51
2018-11-20T18:32:15.458Z,87.44
2018-11-20T18:34:56.023Z,87.67
2018-11-20T18:37:46.749Z,88.03
2018-11-20T18:40:53.201Z,88.14
2018-11-20T18:43:47.251Z,88.17
2018-11-20T18:46:34.042Z,88.16
2018-11-20T18:49:22.104Z,88.35
2018-11-20T18:52:08.762Z,88.79
2018-11-20T18:55:08.938Z,88.79
2018-11-20T18:57:55.425Z,89.67
2018-11-20T19:00:43.525Z,90.27
2018-11-20T19:03:31.595Z,90.74
2018-11-20T19:06:17.157Z,90.88
2018-11-20T19:09:03.682Z,90.79
2018-11-20T19:11:51.765Z,91.09
2018-11-20T19:14:54.857Z,91.02
2018-11-20T19:17:36.640Z,91.17
2018-11-20T19:20:31.015Z,91.69
2018-11-20T19:23:17.626Z,93.46
2018-11-20T19:26:08.109Z,94.28
2018-11-20T19:28:53.335Z,94.41
2018-11-20T19:31:41.551Z,94.21
2018-11-20T19:34:27.195Z,94.18
2018-11-20T19:37:14.013Z,93.96
2018-11-20T19:40:02.074Z,93.83
2018-11-20T19:42:48.915Z,93.33
2018-11-20T19:45:43.001Z,93.66
2018-11-20T19:48:26.764Z,93.90
2018-11-20T19:51:23.539Z,94.20
2018-11-20T19:54:10.450Z,94.33
2018-11-20T19:56:57.151Z,94.33
2018-11-20T19:59:44.175Z,94.61
2018-11-20T20:02:33.331Z,94.29
2018-11-20T20:05:17.544Z,94.24
2018-11-20T20:07:59.689Z,94.98
2018-11-20T20:10:43.696Z,94.69
2018-11-20T20:13:30.794Z,94.69
2018-11-20T20:16:17.652Z,94.56
2018-11-20T20:19:00.021Z,93.68
2018-11-20T20:21:46.726Z,93.96
2018-11-20T20:24:38.458Z,93.84
2018-11-20T20:27:29.032Z,95.40
2018-11-20T20:30:16.724Z,94.52
2018-11-20T20:32:58.561Z,93.74
2018-11-20T20:35:49.436Z,93.25
2018-11-20T20:38:32.714Z,93.33
2018-11-20T20:41:32.960Z,93.57
2018-11-20T20:44:19.588Z,93.93
2018-11-20T20:47:08.411Z,93.88
2018-11-20T20:49:46.763Z,94.08
2018-11-20T20:52:23.459Z,94.41
2018-11-20T20:55:10.061Z,94.33
2018-11-20T20:57:53.412Z,94.25
2018-11-20T21:00:40.414Z,94.58
2018-11-20T21:03:28.088Z,95.13
2018-11-20T21:06:11.913Z,96.02
2018-11-20T21:09:02.975Z,97.00
2018-11-20T21:11:43.318Z,97.71
2018-11-20T21:14:37.931Z,98.20
2018-11-20T21:17:20.357Z,98.55
2018-11-20T21:20:17.615Z,98.69
2018-11-20T21:23:13.255Z,99.07
2018-11-20T21:25:59.971Z,99.33
2018-11-20T21:28:56.915Z,99.89
2018-11-20T21:31:44.618Z,100.00
2018-11-20T21:34:41.773Z,100.00
2018-11-20T21:37:29.862Z,100.00
2018-11-20T21:40:16.783Z,100.00
2018-11-20T21:43:14.138Z,100.00
2018-11-20T21:46:00.926Z,100.00
2018-11-20T21:48:47.782Z,100.00
2018-11-20T21:51:32.130Z,100.00
2018-11-20T21:54:19.040Z,100.00
2018-11-20T21:57:22.058Z,100.00
2018-11-20T22:03:57.159Z,100.00
2018-11-20T22:06:47.258Z,100.00
2018-11-20T22:09:23.256Z,100.00
2018-11-20T22:12:20.923Z,100.00
2018-11-20T22:15:14.612Z,100.00
2018-11-20T22:18:00.381Z,100.00
2018-11-20T22:20:50.474Z,100.00
2018-11-20T22:23:46.837Z,100.00
2018-11-20T22:26:36.611Z,100.00
2018-11-20T22:29:17.430Z,100.00
2018-11-20T22:32:03.422Z,100.00
2018-11-20T22:34:49.472Z,100.00
2018-11-20T22:37:39.576Z,100.00
2018-11-20T22:40:26.947Z,100.00
2018-11-20T22:43:18.823Z,100.00
2018-11-20T22:46:04.928Z,100.00
2018-11-20T22:48:56.863Z,100.00
2018-11-20T22:51:42.806Z,100.00
2018-11-20T22:54:24.579Z,100.00
2018-11-20T22:57:03.712Z,100.00
2018-11-20T22:59:40.249Z,100.00
2018-11-20T23:02:21.077Z,100.00
2018-11-20T23:05:05.817Z,100.00
2018-11-20T23:07:45.557Z,100.00
2018-11-20T23:10:16.015Z,100.00
2018-11-20T23:12:44.220Z,100.00
2018-11-20T23:15:13.800Z,100.00
2018-11-20T23:17:42.004Z,100.00
2018-11-20T23:20:11.094Z,100.00
2018-11-20T23:22:39.218Z,100.00
2018-11-20T23:25:08.866Z,100.00
2018-11-20T23:27:37.000Z,100.00
2018-11-20T23:30:07.812Z,100.00
2018-11-20T23:32:35.961Z,100.00
2018-11-20T23:35:04.312Z,100.00
2018-11-20T23:37:32.489Z,100.00
2018-11-20T23:40:00.630Z,100.00
2018-11-20T23:42:28.787Z,100.00
2018-11-20T23:44:56.907Z,100.00
2018-11-20T23:47:25.062Z,100.00
2018-11-20T23:49:53.186Z,100.00
2018-11-20T23:52:21.435Z,100.00
2018-11-20T23:54:49.764Z,100.00
2018-11-20T23:57:17.917Z,100.00
2018-11-20T23:59:46.142Z,100.00
